sensor_id;sensor_type;location;lat;lon;timestamp;P1;durP1;ratioP1;P2;durP2;ratioP2
41512;SDS011;27244;59.940;30.280;2023-07-28T00:00:07;7.03;;;4.00;;
41512;SDS011;27244;59.940;30.280;2023-07-28T00:02:40;8.52;;;4.13;;
41512;SDS011;27244;59.940;30.280;2023-07-28T00:05:07;6.25;;;3.47;;
41512;SDS011;27244;59.940;30.280;2023-07-28T00:07:34;7.40;;;3.58;;
41512;SDS011;27244;59.940;30.280;2023-07-28T00:10:02;6.03;;;3.33;;
41512;SDS011;27244;59.940;30.280;2023-07-28T00:12:29;4.90;;;2.85;;
41512;SDS011;27244;59.940;30.280;2023-07-28T00:14:56;8.70;;;3.08;;
41512;SDS011;27244;59.940;30.280;2023-07-28T00:17:26;5.10;;;3.20;;
41512;SDS011;27244;59.940;30.280;2023-07-28T00:19:53;7.40;;;3.35;;
41512;SDS011;27244;59.940;30.280;2023-07-28T00:22:20;5.95;;;2.80;;
41512;SDS011;27244;59.940;30.280;2023-07-28T00:24:47;5.22;;;2.80;;
41512;SDS011;27244;59.940;30.280;2023-07-28T00:27:14;8.20;;;2.58;;
41512;SDS011;27244;59.940;30.280;2023-07-28T00:29:43;6.72;;;3.10;;
41512;SDS011;27244;59.940;30.280;2023-07-28T00:32:11;4.50;;;2.65;;
41512;SDS011;27244;59.940;30.280;2023-07-28T00:34:39;4.03;;;2.45;;
41512;SDS011;27244;59.940;30.280;2023-07-28T00:37:06;3.90;;;2.50;;
41512;SDS011;27244;59.940;30.280;2023-07-28T00:39:34;6.53;;;2.80;;
41512;SDS011;27244;59.940;30.280;2023-07-28T00:42:01;5.85;;;2.67;;
41512;SDS011;27244;59.940;30.280;2023-07-28T00:44:28;5.13;;;2.40;;
41512;SDS011;27244;59.940;30.280;2023-07-28T00:46:55;4.80;;;2.58;;
41512;SDS011;27244;59.940;30.280;2023-07-28T00:49:22;3.75;;;2.40;;
41512;SDS011;27244;59.940;30.280;2023-07-28T00:51:51;5.55;;;2.47;;
41512;SDS011;27244;59.940;30.280;2023-07-28T00:54:19;5.03;;;2.35;;
41512;SDS011;27244;59.940;30.280;2023-07-28T00:56:46;6.03;;;2.38;;
41512;SDS011;27244;59.940;30.280;2023-07-28T00:59:15;8.43;;;2.35;;
41512;SDS011;27244;59.940;30.280;2023-07-28T01:01:42;5.60;;;2.28;;
41512;SDS011;27244;59.940;30.280;2023-07-28T01:04:09;7.75;;;3.15;;
41512;SDS011;27244;59.940;30.280;2023-07-28T01:06:39;3.95;;;1.70;;
41512;SDS011;27244;59.940;30.280;2023-07-28T01:09:16;3.42;;;1.80;;
41512;SDS011;27244;59.940;30.280;2023-07-28T01:11:54;3.30;;;1.52;;
41512;SDS011;27244;59.940;30.280;2023-07-28T01:14:22;4.80;;;1.85;;
41512;SDS011;27244;59.940;30.280;2023-07-28T01:16:49;4.40;;;1.80;;
41512;SDS011;27244;59.940;30.280;2023-07-28T01:19:17;2.65;;;1.45;;
41512;SDS011;27244;59.940;30.280;2023-07-28T01:21:48;3.85;;;1.50;;
41512;SDS011;27244;59.940;30.280;2023-07-28T01:24:22;3.17;;;1.58;;
41512;SDS011;27244;59.940;30.280;2023-07-28T01:26:57;3.53;;;1.30;;
41512;SDS011;27244;59.940;30.280;2023-07-28T01:29:25;3.42;;;1.30;;
41512;SDS011;27244;59.940;30.280;2023-07-28T01:31:52;2.95;;;1.38;;
41512;SDS011;27244;59.940;30.280;2023-07-28T01:34:19;3.05;;;1.20;;
41512;SDS011;27244;59.940;30.280;2023-07-28T01:36:46;3.67;;;1.23;;
41512;SDS011;27244;59.940;30.280;2023-07-28T01:39:13;2.50;;;1.40;;
41512;SDS011;27244;59.940;30.280;2023-07-28T01:41:40;3.13;;;1.30;;
41512;SDS011;27244;59.940;30.280;2023-07-28T01:44:10;4.35;;;1.20;;
41512;SDS011;27244;59.940;30.280;2023-07-28T01:46:38;2.38;;;1.20;;
41512;SDS011;27244;59.940;30.280;2023-07-28T01:49:05;3.15;;;1.10;;
41512;SDS011;27244;59.940;30.280;2023-07-28T01:51:32;2.92;;;1.50;;
41512;SDS011;27244;59.940;30.280;2023-07-28T01:53:59;2.60;;;1.00;;
41512;SDS011;27244;59.940;30.280;2023-07-28T01:56:27;2.40;;;1.40;;
41512;SDS011;27244;59.940;30.280;2023-07-28T01:58:54;1.80;;;1.00;;
41512;SDS011;27244;59.940;30.280;2023-07-28T02:01:22;2.85;;;1.02;;
41512;SDS011;27244;59.940;30.280;2023-07-28T02:03:49;1.77;;;0.77;;
41512;SDS011;27244;59.940;30.280;2023-07-28T02:06:16;2.15;;;1.00;;
41512;SDS011;27244;59.940;30.280;2023-07-28T02:08:43;2.55;;;1.10;;
41512;SDS011;27244;59.940;30.280;2023-07-28T02:11:10;1.95;;;0.82;;
41512;SDS011;27244;59.940;30.280;2023-07-28T02:13:37;3.00;;;1.20;;
41512;SDS011;27244;59.940;30.280;2023-07-28T02:16:05;2.55;;;0.93;;
41512;SDS011;27244;59.940;30.280;2023-07-28T02:18:33;2.10;;;1.20;;
41512;SDS011;27244;59.940;30.280;2023-07-28T02:21:00;1.45;;;0.95;;
41512;SDS011;27244;59.940;30.280;2023-07-28T02:23:27;2.30;;;0.90;;
41512;SDS011;27244;59.940;30.280;2023-07-28T02:25:54;2.05;;;1.08;;
41512;SDS011;27244;59.940;30.280;2023-07-28T02:28:22;2.85;;;1.17;;
41512;SDS011;27244;59.940;30.280;2023-07-28T02:30:49;2.80;;;1.05;;
41512;SDS011;27244;59.940;30.280;2023-07-28T02:33:16;1.52;;;0.80;;
41512;SDS011;27244;59.940;30.280;2023-07-28T02:35:45;2.40;;;0.80;;
41512;SDS011;27244;59.940;30.280;2023-07-28T02:38:12;1.85;;;0.80;;
41512;SDS011;27244;59.940;30.280;2023-07-28T02:40:39;2.00;;;0.80;;
41512;SDS011;27244;59.940;30.280;2023-07-28T02:43:06;1.35;;;0.80;;
41512;SDS011;27244;59.940;30.280;2023-07-28T02:45:33;2.42;;;0.82;;
41512;SDS011;27244;59.940;30.280;2023-07-28T02:48:00;2.92;;;1.40;;
41512;SDS011;27244;59.940;30.280;2023-07-28T02:50:27;2.40;;;1.08;;
41512;SDS011;27244;59.940;30.280;2023-07-28T02:52:55;1.45;;;0.93;;
41512;SDS011;27244;59.940;30.280;2023-07-28T02:55:22;2.75;;;1.20;;
41512;SDS011;27244;59.940;30.280;2023-07-28T02:57:50;2.80;;;0.98;;
41512;SDS011;27244;59.940;30.280;2023-07-28T03:00:17;1.42;;;0.80;;
41512;SDS011;27244;59.940;30.280;2023-07-28T03:02:44;3.42;;;0.98;;
41512;SDS011;27244;59.940;30.280;2023-07-28T03:05:11;4.53;;;1.38;;
41512;SDS011;27244;59.940;30.280;2023-07-28T03:08:08;2.85;;;1.10;;
41512;SDS011;27244;59.940;30.280;2023-07-28T03:10:35;3.30;;;0.98;;
41512;SDS011;27244;59.940;30.280;2023-07-28T03:13:02;3.58;;;1.02;;
41512;SDS011;27244;59.940;30.280;2023-07-28T03:15:29;3.97;;;1.35;;
41512;SDS011;27244;59.940;30.280;2023-07-28T03:17:57;2.25;;;1.20;;
41512;SDS011;27244;59.940;30.280;2023-07-28T03:20:24;3.30;;;1.13;;
41512;SDS011;27244;59.940;30.280;2023-07-28T03:22:51;2.55;;;0.95;;
41512;SDS011;27244;59.940;30.280;2023-07-28T03:25:21;3.58;;;1.00;;
41512;SDS011;27244;59.940;30.280;2023-07-28T03:27:48;2.53;;;1.00;;
41512;SDS011;27244;59.940;30.280;2023-07-28T03:30:15;3.38;;;1.00;;
41512;SDS011;27244;59.940;30.280;2023-07-28T03:32:43;2.78;;;1.15;;
41512;SDS011;27244;59.940;30.280;2023-07-28T03:35:10;2.30;;;0.98;;
41512;SDS011;27244;59.940;30.280;2023-07-28T03:37:42;2.78;;;1.42;;
41512;SDS011;27244;59.940;30.280;2023-07-28T03:40:10;3.17;;;1.30;;
41512;SDS011;27244;59.940;30.280;2023-07-28T03:42:47;4.25;;;1.20;;
41512;SDS011;27244;59.940;30.280;2023-07-28T03:45:14;1.95;;;1.15;;
41512;SDS011;27244;59.940;30.280;2023-07-28T03:47:41;3.03;;;1.10;;
41512;SDS011;27244;59.940;30.280;2023-07-28T03:50:09;3.00;;;1.13;;
41512;SDS011;27244;59.940;30.280;2023-07-28T03:52:36;3.35;;;1.23;;
41512;SDS011;27244;59.940;30.280;2023-07-28T03:55:03;2.00;;;0.98;;
41512;SDS011;27244;59.940;30.280;2023-07-28T03:57:30;2.90;;;1.15;;
41512;SDS011;27244;59.940;30.280;2023-07-28T03:59:59;1.90;;;1.13;;
41512;SDS011;27244;59.940;30.280;2023-07-28T04:02:26;2.25;;;1.05;;
41512;SDS011;27244;59.940;30.280;2023-07-28T04:04:53;2.60;;;1.23;;
41512;SDS011;27244;59.940;30.280;2023-07-28T04:07:21;2.60;;;1.20;;
41512;SDS011;27244;59.940;30.280;2023-07-28T04:09:48;2.17;;;1.17;;
41512;SDS011;27244;59.940;30.280;2023-07-28T04:12:15;4.28;;;1.42;;
41512;SDS011;27244;59.940;30.280;2023-07-28T04:14:42;3.13;;;1.50;;
41512;SDS011;27244;59.940;30.280;2023-07-28T04:17:10;2.78;;;1.85;;
41512;SDS011;27244;59.940;30.280;2023-07-28T04:19:38;3.83;;;1.58;;
41512;SDS011;27244;59.940;30.280;2023-07-28T04:22:05;3.50;;;1.90;;
41512;SDS011;27244;59.940;30.280;2023-07-28T04:24:33;3.17;;;1.77;;
41512;SDS011;27244;59.940;30.280;2023-07-28T04:27:01;4.05;;;2.15;;
41512;SDS011;27244;59.940;30.280;2023-07-28T04:29:28;4.63;;;2.00;;
41512;SDS011;27244;59.940;30.280;2023-07-28T04:31:55;3.05;;;1.90;;
41512;SDS011;27244;59.940;30.280;2023-07-28T04:34:34;4.18;;;1.85;;
41512;SDS011;27244;59.940;30.280;2023-07-28T04:37:13;2.90;;;1.80;;
41512;SDS011;27244;59.940;30.280;2023-07-28T04:39:48;3.17;;;1.88;;
41512;SDS011;27244;59.940;30.280;2023-07-28T04:42:16;3.22;;;2.08;;
41512;SDS011;27244;59.940;30.280;2023-07-28T04:44:45;2.65;;;1.85;;
41512;SDS011;27244;59.940;30.280;2023-07-28T04:47:13;2.53;;;1.92;;
41512;SDS011;27244;59.940;30.280;2023-07-28T04:49:43;2.95;;;1.42;;
41512;SDS011;27244;59.940;30.280;2023-07-28T04:52:10;3.80;;;2.20;;
41512;SDS011;27244;59.940;30.280;2023-07-28T04:54:46;3.17;;;1.80;;
41512;SDS011;27244;59.940;30.280;2023-07-28T04:57:13;2.92;;;1.80;;
41512;SDS011;27244;59.940;30.280;2023-07-28T04:59:40;3.10;;;1.80;;
41512;SDS011;27244;59.940;30.280;2023-07-28T05:02:08;4.15;;;1.65;;
41512;SDS011;27244;59.940;30.280;2023-07-28T05:04:35;2.47;;;1.75;;
41512;SDS011;27244;59.940;30.280;2023-07-28T05:07:04;2.38;;;1.50;;
41512;SDS011;27244;59.940;30.280;2023-07-28T05:09:31;4.30;;;2.10;;
41512;SDS011;27244;59.940;30.280;2023-07-28T05:11:58;3.92;;;1.50;;
41512;SDS011;27244;59.940;30.280;2023-07-28T05:14:26;3.95;;;1.48;;
41512;SDS011;27244;59.940;30.280;2023-07-28T05:16:53;2.08;;;1.45;;
41512;SDS011;27244;59.940;30.280;2023-07-28T05:19:27;3.20;;;1.63;;
41512;SDS011;27244;59.940;30.280;2023-07-28T05:22:28;2.15;;;1.60;;
41512;SDS011;27244;59.940;30.280;2023-07-28T05:24:55;5.68;;;2.05;;
41512;SDS011;27244;59.940;30.280;2023-07-28T05:27:26;5.45;;;1.65;;
41512;SDS011;27244;59.940;30.280;2023-07-28T05:29:53;5.40;;;1.83;;
41512;SDS011;27244;59.940;30.280;2023-07-28T05:32:20;3.55;;;2.00;;
41512;SDS011;27244;59.940;30.280;2023-07-28T05:35:02;3.42;;;1.58;;
41512;SDS011;27244;59.940;30.280;2023-07-28T05:37:31;4.03;;;1.63;;
41512;SDS011;27244;59.940;30.280;2023-07-28T05:39:58;3.22;;;1.52;;
41512;SDS011;27244;59.940;30.280;2023-07-28T05:42:25;2.15;;;1.40;;
41512;SDS011;27244;59.940;30.280;2023-07-28T05:44:53;3.30;;;1.70;;
41512;SDS011;27244;59.940;30.280;2023-07-28T05:47:21;3.83;;;1.45;;
41512;SDS011;27244;59.940;30.280;2023-07-28T05:49:48;2.13;;;1.35;;
41512;SDS011;27244;59.940;30.280;2023-07-28T05:52:15;4.13;;;1.75;;
41512;SDS011;27244;59.940;30.280;2023-07-28T05:54:43;4.80;;;1.58;;
41512;SDS011;27244;59.940;30.280;2023-07-28T05:57:10;4.68;;;1.80;;
41512;SDS011;27244;59.940;30.280;2023-07-28T05:59:37;3.65;;;1.48;;
41512;SDS011;27244;59.940;30.280;2023-07-28T06:02:05;2.92;;;1.50;;
41512;SDS011;27244;59.940;30.280;2023-07-28T06:04:40;2.95;;;1.48;;
41512;SDS011;27244;59.940;30.280;2023-07-28T06:07:07;6.05;;;1.58;;
41512;SDS011;27244;59.940;30.280;2023-07-28T06:09:36;2.78;;;1.50;;
41512;SDS011;27244;59.940;30.280;2023-07-28T06:12:06;3.70;;;1.40;;
41512;SDS011;27244;59.940;30.280;2023-07-28T06:14:33;3.78;;;1.70;;
41512;SDS011;27244;59.940;30.280;2023-07-28T06:17:03;3.00;;;1.50;;
41512;SDS011;27244;59.940;30.280;2023-07-28T06:19:32;2.00;;;1.23;;
41512;SDS011;27244;59.940;30.280;2023-07-28T06:21:59;4.07;;;1.55;;
41512;SDS011;27244;59.940;30.280;2023-07-28T06:24:29;2.60;;;1.50;;
41512;SDS011;27244;59.940;30.280;2023-07-28T06:26:59;2.63;;;1.50;;
41512;SDS011;27244;59.940;30.280;2023-07-28T06:29:30;2.90;;;1.80;;
41512;SDS011;27244;59.940;30.280;2023-07-28T06:31:57;2.75;;;1.52;;
41512;SDS011;27244;59.940;30.280;2023-07-28T06:34:24;4.35;;;1.80;;
41512;SDS011;27244;59.940;30.280;2023-07-28T06:36:51;2.42;;;1.30;;
41512;SDS011;27244;59.940;30.280;2023-07-28T06:39:19;3.90;;;1.60;;
41512;SDS011;27244;59.940;30.280;2023-07-28T06:41:46;4.28;;;1.42;;
41512;SDS011;27244;59.940;30.280;2023-07-28T06:44:14;2.80;;;1.50;;
41512;SDS011;27244;59.940;30.280;2023-07-28T06:46:43;4.03;;;1.42;;
41512;SDS011;27244;59.940;30.280;2023-07-28T06:49:10;2.05;;;1.48;;
41512;SDS011;27244;59.940;30.280;2023-07-28T06:51:38;3.45;;;1.60;;
41512;SDS011;27244;59.940;30.280;2023-07-28T06:54:05;2.70;;;1.40;;
41512;SDS011;27244;59.940;30.280;2023-07-28T06:56:38;3.38;;;1.70;;
41512;SDS011;27244;59.940;30.280;2023-07-28T06:59:05;2.95;;;1.20;;
41512;SDS011;27244;59.940;30.280;2023-07-28T07:01:33;3.05;;;1.30;;
41512;SDS011;27244;59.940;30.280;2023-07-28T07:04:01;2.42;;;1.40;;
41512;SDS011;27244;59.940;30.280;2023-07-28T07:06:30;4.88;;;1.40;;
41512;SDS011;27244;59.940;30.280;2023-07-28T07:08:57;5.50;;;1.50;;
41512;SDS011;27244;59.940;30.280;2023-07-28T07:11:24;2.70;;;1.58;;
41512;SDS011;27244;59.940;30.280;2023-07-28T07:13:51;2.10;;;1.08;;
41512;SDS011;27244;59.940;30.280;2023-07-28T07:16:18;2.30;;;1.38;;
41512;SDS011;27244;59.940;30.280;2023-07-28T07:18:45;2.50;;;1.38;;
41512;SDS011;27244;59.940;30.280;2023-07-28T07:21:14;1.95;;;1.10;;
41512;SDS011;27244;59.940;30.280;2023-07-28T07:23:42;2.00;;;1.23;;
41512;SDS011;27244;59.940;30.280;2023-07-28T07:26:24;4.32;;;1.10;;
41512;SDS011;27244;59.940;30.280;2023-07-28T07:28:51;1.85;;;0.90;;
41512;SDS011;27244;59.940;30.280;2023-07-28T07:31:18;2.10;;;1.13;;
41512;SDS011;27244;59.940;30.280;2023-07-28T07:33:45;2.67;;;1.38;;
41512;SDS011;27244;59.940;30.280;2023-07-28T07:36:14;2.33;;;1.10;;
41512;SDS011;27244;59.940;30.280;2023-07-28T07:38:41;2.30;;;1.27;;
41512;SDS011;27244;59.940;30.280;2023-07-28T07:41:11;2.20;;;1.10;;
41512;SDS011;27244;59.940;30.280;2023-07-28T07:43:41;2.13;;;1.00;;
41512;SDS011;27244;59.940;30.280;2023-07-28T07:46:08;1.67;;;1.05;;
41512;SDS011;27244;59.940;30.280;2023-07-28T07:48:35;3.72;;;0.95;;
41512;SDS011;27244;59.940;30.280;2023-07-28T07:51:02;5.28;;;1.42;;
41512;SDS011;27244;59.940;30.280;2023-07-28T07:53:30;2.30;;;0.98;;
41512;SDS011;27244;59.940;30.280;2023-07-28T07:55:58;4.40;;;1.00;;
41512;SDS011;27244;59.940;30.280;2023-07-28T07:58:25;2.47;;;0.85;;
41512;SDS011;27244;59.940;30.280;2023-07-28T08:00:53;1.55;;;1.02;;
41512;SDS011;27244;59.940;30.280;2023-07-28T08:03:20;1.40;;;0.98;;
41512;SDS011;27244;59.940;30.280;2023-07-28T08:05:47;1.48;;;1.08;;
41512;SDS011;27244;59.940;30.280;2023-07-28T08:08:14;1.15;;;0.95;;
41512;SDS011;27244;59.940;30.280;2023-07-28T08:10:43;2.50;;;1.17;;
41512;SDS011;27244;59.940;30.280;2023-07-28T08:13:10;2.15;;;0.98;;
41512;SDS011;27244;59.940;30.280;2023-07-28T08:15:38;1.67;;;0.90;;
41512;SDS011;27244;59.940;30.280;2023-07-28T08:18:05;2.45;;;1.02;;
41512;SDS011;27244;59.940;30.280;2023-07-28T08:20:32;1.75;;;0.82;;
41512;SDS011;27244;59.940;30.280;2023-07-28T08:22:59;1.88;;;0.95;;
41512;SDS011;27244;59.940;30.280;2023-07-28T08:25:26;1.75;;;0.90;;
41512;SDS011;27244;59.940;30.280;2023-07-28T08:27:54;2.45;;;1.23;;
41512;SDS011;27244;59.940;30.280;2023-07-28T08:30:21;4.13;;;1.33;;
41512;SDS011;27244;59.940;30.280;2023-07-28T08:32:48;3.58;;;1.30;;
41512;SDS011;27244;59.940;30.280;2023-07-28T08:35:15;2.70;;;1.20;;
41512;SDS011;27244;59.940;30.280;2023-07-28T08:37:43;4.47;;;1.27;;
41512;SDS011;27244;59.940;30.280;2023-07-28T08:40:10;3.35;;;1.20;;
41512;SDS011;27244;59.940;30.280;2023-07-28T08:42:39;4.43;;;1.27;;
41512;SDS011;27244;59.940;30.280;2023-07-28T08:45:08;2.08;;;0.95;;
41512;SDS011;27244;59.940;30.280;2023-07-28T08:47:35;1.10;;;0.70;;
41512;SDS011;27244;59.940;30.280;2023-07-28T08:50:03;2.28;;;1.27;;
41512;SDS011;27244;59.940;30.280;2023-07-28T08:52:31;3.65;;;1.20;;
41512;SDS011;27244;59.940;30.280;2023-07-28T08:54:58;1.25;;;0.70;;
41512;SDS011;27244;59.940;30.280;2023-07-28T08:57:25;1.80;;;0.90;;
41512;SDS011;27244;59.940;30.280;2023-07-28T08:59:53;2.35;;;0.90;;
41512;SDS011;27244;59.940;30.280;2023-07-28T09:02:22;1.48;;;0.93;;
41512;SDS011;27244;59.940;30.280;2023-07-28T09:04:53;1.40;;;0.80;;
41512;SDS011;27244;59.940;30.280;2023-07-28T09:07:23;2.30;;;0.85;;
41512;SDS011;27244;59.940;30.280;2023-07-28T09:09:58;1.80;;;1.10;;
41512;SDS011;27244;59.940;30.280;2023-07-28T09:12:26;2.33;;;1.02;;
41512;SDS011;27244;59.940;30.280;2023-07-28T09:14:55;1.42;;;0.80;;
41512;SDS011;27244;59.940;30.280;2023-07-28T09:17:24;7.57;;;1.65;;
41512;SDS011;27244;59.940;30.280;2023-07-28T09:19:51;1.77;;;0.85;;
41512;SDS011;27244;59.940;30.280;2023-07-28T09:22:20;2.63;;;1.10;;
41512;SDS011;27244;59.940;30.280;2023-07-28T09:24:48;2.75;;;0.90;;
41512;SDS011;27244;59.940;30.280;2023-07-28T09:27:19;5.28;;;1.45;;
41512;SDS011;27244;59.940;30.280;2023-07-28T09:29:49;3.15;;;1.10;;
41512;SDS011;27244;59.940;30.280;2023-07-28T09:32:17;4.13;;;1.33;;
41512;SDS011;27244;59.940;30.280;2023-07-28T09:35:06;2.38;;;0.80;;
41512;SDS011;27244;59.940;30.280;2023-07-28T09:37:36;2.78;;;1.20;;
41512;SDS011;27244;59.940;30.280;2023-07-28T09:40:06;5.18;;;1.02;;
41512;SDS011;27244;59.940;30.280;2023-07-28T09:42:36;7.22;;;1.17;;
41512;SDS011;27244;59.940;30.280;2023-07-28T09:45:04;3.28;;;0.90;;
41512;SDS011;27244;59.940;30.280;2023-07-28T09:47:33;5.20;;;1.15;;
41512;SDS011;27244;59.940;30.280;2023-07-28T09:50:02;3.17;;;1.10;;
41512;SDS011;27244;59.940;30.280;2023-07-28T09:52:31;2.05;;;0.93;;
41512;SDS011;27244;59.940;30.280;2023-07-28T09:55:02;3.38;;;0.98;;
41512;SDS011;27244;59.940;30.280;2023-07-28T09:57:32;2.85;;;1.10;;
41512;SDS011;27244;59.940;30.280;2023-07-28T10:00:05;1.90;;;1.10;;
41512;SDS011;27244;59.940;30.280;2023-07-28T10:02:39;2.92;;;1.10;;
41512;SDS011;27244;59.940;30.280;2023-07-28T10:05:06;1.80;;;1.10;;
41512;SDS011;27244;59.940;30.280;2023-07-28T10:07:36;1.90;;;0.90;;
41512;SDS011;27244;59.940;30.280;2023-07-28T10:10:06;3.85;;;0.95;;
41512;SDS011;27244;59.940;30.280;2023-07-28T10:12:39;3.65;;;1.20;;
41512;SDS011;27244;59.940;30.280;2023-07-28T10:15:11;2.75;;;0.88;;
41512;SDS011;27244;59.940;30.280;2023-07-28T10:17:44;5.30;;;1.00;;
41512;SDS011;27244;59.940;30.280;2023-07-28T10:20:26;2.90;;;0.77;;
41512;SDS011;27244;59.940;30.280;2023-07-28T10:22:54;1.58;;;0.88;;
41512;SDS011;27244;59.940;30.280;2023-07-28T10:25:29;3.80;;;1.30;;
41512;SDS011;27244;59.940;30.280;2023-07-28T10:27:59;1.77;;;0.93;;
41512;SDS011;27244;59.940;30.280;2023-07-28T10:30:27;2.35;;;1.20;;
41512;SDS011;27244;59.940;30.280;2023-07-28T10:32:56;1.90;;;0.98;;
41512;SDS011;27244;59.940;30.280;2023-07-28T10:35:25;2.83;;;1.05;;
41512;SDS011;27244;59.940;30.280;2023-07-28T10:37:54;2.17;;;1.13;;
41512;SDS011;27244;59.940;30.280;2023-07-28T10:40:29;2.15;;;1.10;;
41512;SDS011;27244;59.940;30.280;2023-07-28T10:42:59;3.30;;;1.20;;
41512;SDS011;27244;59.940;30.280;2023-07-28T10:45:26;2.55;;;1.05;;
41512;SDS011;27244;59.940;30.280;2023-07-28T10:47:55;4.72;;;0.80;;
41512;SDS011;27244;59.940;30.280;2023-07-28T10:50:26;3.40;;;1.10;;
41512;SDS011;27244;59.940;30.280;2023-07-28T10:52:54;1.83;;;0.95;;
41512;SDS011;27244;59.940;30.280;2023-07-28T10:55:22;4.65;;;1.13;;
41512;SDS011;27244;59.940;30.280;2023-07-28T10:57:51;2.95;;;0.98;;
41512;SDS011;27244;59.940;30.280;2023-07-28T11:00:19;1.50;;;1.02;;
41512;SDS011;27244;59.940;30.280;2023-07-28T11:02:48;1.88;;;0.90;;
41512;SDS011;27244;59.940;30.280;2023-07-28T11:05:20;2.50;;;0.90;;
41512;SDS011;27244;59.940;30.280;2023-07-28T11:07:48;2.70;;;1.00;;
41512;SDS011;27244;59.940;30.280;2023-07-28T11:10:18;4.63;;;1.00;;
41512;SDS011;27244;59.940;30.280;2023-07-28T11:12:46;1.40;;;0.90;;
41512;SDS011;27244;59.940;30.280;2023-07-28T11:15:16;2.65;;;1.30;;
41512;SDS011;27244;59.940;30.280;2023-07-28T11:17:44;3.47;;;1.10;;
41512;SDS011;27244;59.940;30.280;2023-07-28T11:20:15;5.47;;;1.00;;
41512;SDS011;27244;59.940;30.280;2023-07-28T11:22:44;1.52;;;1.00;;
41512;SDS011;27244;59.940;30.280;2023-07-28T11:25:13;1.08;;;0.70;;
41512;SDS011;27244;59.940;30.280;2023-07-28T11:27:40;2.13;;;1.10;;
41512;SDS011;27244;59.940;30.280;2023-07-28T11:30:07;3.08;;;0.77;;
41512;SDS011;27244;59.940;30.280;2023-07-28T11:32:36;0.95;;;0.68;;
41512;SDS011;27244;59.940;30.280;2023-07-28T11:35:04;2.15;;;1.00;;
41512;SDS011;27244;59.940;30.280;2023-07-28T11:37:32;1.10;;;0.80;;
41512;SDS011;27244;59.940;30.280;2023-07-28T11:40:02;1.95;;;0.82;;
41512;SDS011;27244;59.940;30.280;2023-07-28T11:42:32;1.75;;;0.95;;
41512;SDS011;27244;59.940;30.280;2023-07-28T11:45:01;2.30;;;1.00;;
41512;SDS011;27244;59.940;30.280;2023-07-28T11:47:29;1.15;;;0.63;;
41512;SDS011;27244;59.940;30.280;2023-07-28T11:49:56;2.15;;;0.90;;
41512;SDS011;27244;59.940;30.280;2023-07-28T11:52:29;1.05;;;0.80;;
41512;SDS011;27244;59.940;30.280;2023-07-28T11:54:57;1.10;;;0.80;;
41512;SDS011;27244;59.940;30.280;2023-07-28T11:57:27;2.88;;;0.70;;
41512;SDS011;27244;59.940;30.280;2023-07-28T11:59:57;1.58;;;1.20;;
41512;SDS011;27244;59.940;30.280;2023-07-28T12:02:25;1.92;;;0.90;;
41512;SDS011;27244;59.940;30.280;2023-07-28T12:04:53;1.17;;;0.70;;
41512;SDS011;27244;59.940;30.280;2023-07-28T12:07:27;1.95;;;0.80;;
41512;SDS011;27244;59.940;30.280;2023-07-28T12:09:55;1.67;;;0.80;;
41512;SDS011;27244;59.940;30.280;2023-07-28T12:12:25;2.90;;;1.05;;
41512;SDS011;27244;59.940;30.280;2023-07-28T12:14:55;2.30;;;1.10;;
41512;SDS011;27244;59.940;30.280;2023-07-28T12:17:24;1.52;;;1.08;;
41512;SDS011;27244;59.940;30.280;2023-07-28T12:20:01;2.17;;;1.13;;
41512;SDS011;27244;59.940;30.280;2023-07-28T12:22:36;1.65;;;1.10;;
41512;SDS011;27244;59.940;30.280;2023-07-28T12:25:04;2.05;;;0.90;;
41512;SDS011;27244;59.940;30.280;2023-07-28T12:27:32;2.08;;;1.00;;
41512;SDS011;27244;59.940;30.280;2023-07-28T12:30:00;2.35;;;0.90;;
41512;SDS011;27244;59.940;30.280;2023-07-28T12:32:29;1.75;;;0.98;;
41512;SDS011;27244;59.940;30.280;2023-07-28T12:34:56;1.95;;;0.88;;
41512;SDS011;27244;59.940;30.280;2023-07-28T12:37:24;1.77;;;1.08;;
41512;SDS011;27244;59.940;30.280;2023-07-28T12:39:51;2.22;;;1.05;;
41512;SDS011;27244;59.940;30.280;2023-07-28T12:42:18;4.47;;;1.40;;
41512;SDS011;27244;59.940;30.280;2023-07-28T12:44:47;1.85;;;1.20;;
41512;SDS011;27244;59.940;30.280;2023-07-28T12:47:14;3.53;;;1.33;;
41512;SDS011;27244;59.940;30.280;2023-07-28T12:49:41;2.88;;;1.10;;
41512;SDS011;27244;59.940;30.280;2023-07-28T12:52:08;2.55;;;1.20;;
41512;SDS011;27244;59.940;30.280;2023-07-28T12:54:35;3.35;;;1.05;;
41512;SDS011;27244;59.940;30.280;2023-07-28T12:57:03;3.15;;;0.90;;
41512;SDS011;27244;59.940;30.280;2023-07-28T12:59:32;1.98;;;1.00;;
41512;SDS011;27244;59.940;30.280;2023-07-28T13:02:00;2.65;;;1.10;;
41512;SDS011;27244;59.940;30.280;2023-07-28T13:04:28;1.83;;;1.15;;
41512;SDS011;27244;59.940;30.280;2023-07-28T13:06:55;2.30;;;1.20;;
41512;SDS011;27244;59.940;30.280;2023-07-28T13:09:22;2.00;;;1.23;;
41512;SDS011;27244;59.940;30.280;2023-07-28T13:11:49;2.08;;;1.33;;
41512;SDS011;27244;59.940;30.280;2023-07-28T13:14:16;1.88;;;1.02;;
41512;SDS011;27244;59.940;30.280;2023-07-28T13:16:43;2.13;;;1.00;;
41512;SDS011;27244;59.940;30.280;2023-07-28T13:19:12;5.18;;;1.40;;
41512;SDS011;27244;59.940;30.280;2023-07-28T13:21:39;2.75;;;1.50;;
41512;SDS011;27244;59.940;30.280;2023-07-28T13:24:06;4.50;;;1.10;;
41512;SDS011;27244;59.940;30.280;2023-07-28T13:26:33;2.20;;;1.17;;
41512;SDS011;27244;59.940;30.280;2023-07-28T13:29:00;5.88;;;1.85;;
41512;SDS011;27244;59.940;30.280;2023-07-28T13:31:28;2.15;;;1.17;;
41512;SDS011;27244;59.940;30.280;2023-07-28T13:33:55;2.95;;;1.10;;
41512;SDS011;27244;59.940;30.280;2023-07-28T13:36:23;2.67;;;1.25;;
41512;SDS011;27244;59.940;30.280;2023-07-28T13:38:50;1.80;;;1.02;;
41512;SDS011;27244;59.940;30.280;2023-07-28T13:41:17;3.00;;;1.13;;
41512;SDS011;27244;59.940;30.280;2023-07-28T13:43:44;3.30;;;1.17;;
41512;SDS011;27244;59.940;30.280;2023-07-28T13:46:11;3.05;;;1.10;;
41512;SDS011;27244;59.940;30.280;2023-07-28T13:48:38;2.80;;;1.20;;
41512;SDS011;27244;59.940;30.280;2023-07-28T13:51:05;2.08;;;0.95;;
41512;SDS011;27244;59.940;30.280;2023-07-28T13:53:34;2.47;;;1.30;;
41512;SDS011;27244;59.940;30.280;2023-07-28T13:56:01;2.05;;;1.02;;
41512;SDS011;27244;59.940;30.280;2023-07-28T13:58:28;4.03;;;1.52;;
41512;SDS011;27244;59.940;30.280;2023-07-28T14:00:55;3.20;;;1.20;;
41512;SDS011;27244;59.940;30.280;2023-07-28T14:03:22;1.98;;;0.95;;
41512;SDS011;27244;59.940;30.280;2023-07-28T14:05:49;4.07;;;1.27;;
41512;SDS011;27244;59.940;30.280;2023-07-28T14:08:17;2.38;;;1.10;;
41512;SDS011;27244;59.940;30.280;2023-07-28T14:10:45;4.55;;;1.70;;
41512;SDS011;27244;59.940;30.280;2023-07-28T14:13:13;3.00;;;1.20;;
41512;SDS011;27244;59.940;30.280;2023-07-28T14:15:40;3.58;;;1.27;;
41512;SDS011;27244;59.940;30.280;2023-07-28T14:18:07;2.20;;;1.00;;
41512;SDS011;27244;59.940;30.280;2023-07-28T14:20:34;3.42;;;1.30;;
41512;SDS011;27244;59.940;30.280;2023-07-28T14:23:01;3.05;;;1.20;;
41512;SDS011;27244;59.940;30.280;2023-07-28T14:25:47;4.00;;;1.38;;
41512;SDS011;27244;59.940;30.280;2023-07-28T14:28:15;2.65;;;1.20;;
41512;SDS011;27244;59.940;30.280;2023-07-28T14:30:42;2.53;;;1.10;;
41512;SDS011;27244;59.940;30.280;2023-07-28T14:33:11;4.00;;;1.30;;
41512;SDS011;27244;59.940;30.280;2023-07-28T14:35:39;1.20;;;0.90;;
41512;SDS011;27244;59.940;30.280;2023-07-28T14:38:06;2.22;;;1.40;;
41512;SDS011;27244;59.940;30.280;2023-07-28T14:40:33;2.72;;;1.30;;